createdAt,value
2022-08-16T00:02:17.308Z,21.78
2022-08-16T00:05:21.792Z,21.61
2022-08-16T00:08:30.582Z,21.70
2022-08-16T00:11:41.892Z,22.04
2022-08-16T00:14:44.986Z,22.13
2022-08-16T00:17:57.036Z,22.17
2022-08-16T00:21:00.235Z,21.99
2022-08-16T00:24:05.101Z,22.05
2022-08-16T00:27:14.637Z,22.03
2022-08-16T00:30:28.751Z,22.06
2022-08-16T00:33:32.128Z,21.99
2022-08-16T00:36:37.060Z,21.95
2022-08-16T00:39:57.685Z,21.77
2022-08-16T00:43:01.820Z,21.73
2022-08-16T00:46:34.299Z,21.76
2022-08-16T00:49:39.589Z,21.79
2022-08-16T00:52:51.425Z,21.68
2022-08-16T00:55:56.868Z,21.79
2022-08-16T00:59:00.524Z,21.78
2022-08-16T01:02:30.613Z,21.74
2022-08-16T01:05:30.525Z,21.56
2022-08-16T01:08:37.059Z,21.51
2022-08-16T01:11:54.972Z,21.53
2022-08-16T01:15:00.447Z,21.48
2022-08-16T01:18:04.596Z,21.44
2022-08-16T01:21:34.783Z,21.25
2022-08-16T01:24:52.646Z,21.27
2022-08-16T01:28:01.496Z,21.21
2022-08-16T01:31:08.439Z,21.25
2022-08-16T01:34:24.982Z,21.13
2022-08-16T01:37:35.641Z,20.92
2022-08-16T01:40:40.123Z,20.98
2022-08-16T01:43:45.056Z,20.93
2022-08-16T01:46:57.755Z,20.94
2022-08-16T01:50:41.799Z,20.92
2022-08-16T01:53:26.517Z,20.91
2022-08-16T01:56:34.651Z,20.91
2022-08-16T01:59:39.268Z,20.81
2022-08-16T02:02:44.156Z,20.80
2022-08-16T02:05:55.622Z,20.83
2022-08-16T02:09:00.794Z,20.90
2022-08-16T02:12:50.125Z,21.08
2022-08-16T02:15:38.765Z,21.21
2022-08-16T02:18:48.141Z,21.16
2022-08-16T02:22:09.206Z,21.12
2022-08-16T02:25:16.774Z,21.01
2022-08-16T02:28:23.708Z,20.92
2022-08-16T02:32:04.540Z,20.93
2022-08-16T02:34:50.509Z,20.94
2022-08-16T02:37:56.085Z,20.94
2022-08-16T02:41:01.846Z,20.84
2022-08-16T02:44:06.662Z,20.82
2022-08-16T02:47:12.234Z,20.95
2022-08-16T02:50:53.796Z,21.05
2022-08-16T02:53:54.422Z,21.06
2022-08-16T02:56:59.569Z,20.99
2022-08-16T03:00:34.114Z,21.02
2022-08-16T03:04:40.629Z,21.01
2022-08-16T03:06:57.530Z,21.00
2022-08-16T03:10:04.364Z,20.94
2022-08-16T03:13:12.340Z,20.91
2022-08-16T03:16:37.608Z,20.93
2022-08-16T03:19:47.503Z,21.02
2022-08-16T03:22:56.570Z,21.08
2022-08-16T03:26:00.812Z,21.04
2022-08-16T03:29:04.580Z,21.06
2022-08-16T03:32:07.807Z,20.96
2022-08-16T03:35:10.909Z,20.88
2022-08-16T03:38:32.886Z,20.82
2022-08-16T03:41:50.877Z,20.80
2022-08-16T03:45:03.241Z,20.78
2022-08-16T03:48:08.070Z,20.71
2022-08-16T03:51:12.825Z,20.55
2022-08-16T03:54:20.233Z,20.42
2022-08-16T03:57:31.798Z,19.91
2022-08-16T04:00:59.523Z,19.84
2022-08-16T04:05:46.779Z,20.11
2022-08-16T05:36:16.200Z,19.86
2022-08-16T05:39:33.403Z,19.73
2022-08-16T05:43:11.963Z,19.85
2022-08-16T05:46:30.211Z,20.15
2022-08-16T05:49:40.109Z,20.30
2022-08-16T05:52:44.965Z,20.42
2022-08-16T05:55:48.889Z,20.42
2022-08-16T06:32:08.855Z,21.93
2022-08-16T07:18:07.602Z,23.57
2022-08-16T07:52:20.788Z,24.02
2022-08-16T07:55:24.622Z,24.36
2022-08-16T08:02:47.765Z,24.65
2022-08-16T08:05:55.986Z,24.92
2022-08-16T08:09:23.612Z,24.91
2022-08-16T08:12:32.053Z,25.33
2022-08-16T08:15:39.234Z,24.84
2022-08-16T08:19:07.279Z,25.15
2022-08-16T08:22:28.901Z,25.40
2022-08-16T08:25:54.263Z,25.80
2022-08-16T08:29:00.875Z,25.99
2022-08-16T08:32:57.851Z,25.91
2022-08-16T08:35:29.906Z,26.22
2022-08-16T08:38:46.008Z,26.16
2022-08-16T08:41:51.326Z,26.45
2022-08-16T08:44:55.961Z,26.65
2022-08-16T08:47:58.849Z,26.91
2022-08-16T08:51:09.104Z,27.10
2022-08-16T08:54:20.493Z,27.13
2022-08-16T08:57:26.555Z,27.34
2022-08-16T09:00:31.945Z,27.63
2022-08-16T09:03:54.067Z,27.33
2022-08-16T09:07:01.128Z,27.18
2022-08-16T09:10:20.310Z,27.56
2022-08-16T09:13:32.724Z,27.57
2022-08-16T09:17:02.476Z,27.78
2022-08-16T09:20:08.045Z,27.86
2022-08-16T09:23:11.508Z,28.10
2022-08-16T09:26:45.727Z,28.04
2022-08-16T09:29:45.465Z,27.92
2022-08-16T09:33:10.427Z,28.54
2022-08-16T09:36:32.220Z,28.60
2022-08-16T12:21:59.589Z,34.14
2022-08-16T12:49:42.150Z,34.96
2022-08-16T13:04:20.863Z,33.41
2022-08-16T13:26:57.789Z,34.57
2022-08-16T13:53:43.022Z,36.78
2022-08-16T14:09:16.971Z,36.88
2022-08-16T14:12:46.099Z,36.86
2022-08-16T14:16:23.951Z,36.97
2022-08-16T14:19:59.954Z,37.02
2022-08-16T14:23:14.713Z,37.59
2022-08-16T14:26:57.573Z,37.45
2022-08-16T14:30:01.391Z,37.16
2022-08-16T14:33:14.554Z,38.13
2022-08-16T14:36:31.346Z,37.64
2022-08-16T14:39:39.411Z,39.19
2022-08-16T14:51:10.705Z,36.66
2022-08-16T14:54:36.533Z,38.07
2022-08-16T14:58:06.999Z,36.57
2022-08-16T15:04:58.823Z,38.75
2022-08-16T15:08:02.364Z,38.29
2022-08-16T15:12:26.276Z,37.75
2022-08-16T15:19:31.270Z,37.81
2022-08-16T15:26:45.242Z,37.81
2022-08-16T15:29:53.867Z,38.13
2022-08-16T15:36:57.065Z,38.57
2022-08-16T15:40:01.405Z,39.12
2022-08-16T15:47:26.472Z,38.64
2022-08-16T15:58:58.978Z,37.00
2022-08-16T16:02:33.585Z,37.59
2022-08-16T16:13:42.914Z,37.38
2022-08-16T16:45:25.858Z,37.03
2022-08-16T16:52:58.068Z,36.22
2022-08-16T16:56:20.380Z,35.95
2022-08-16T16:59:50.050Z,36.38
2022-08-16T17:15:52.225Z,34.81
2022-08-16T17:29:51.439Z,33.57
2022-08-16T20:34:44.752Z,25.20
2022-08-16T20:37:48.685Z,25.18
2022-08-16T20:40:51.572Z,25.18
2022-08-16T20:43:55.277Z,25.14
2022-08-16T20:46:58.047Z,24.99
2022-08-16T20:50:03.780Z,24.92
2022-08-16T20:53:06.964Z,24.83
2022-08-16T20:56:11.212Z,24.59
2022-08-16T20:59:14.120Z,24.64
2022-08-16T21:02:24.643Z,24.63
2022-08-16T21:05:31.310Z,24.65
2022-08-16T21:08:53.245Z,24.61
2022-08-16T21:11:58.976Z,24.55
2022-08-16T21:15:08.769Z,24.46
2022-08-16T21:18:11.625Z,24.42
2022-08-16T21:21:14.703Z,24.43
2022-08-16T21:24:17.491Z,24.41
2022-08-16T21:27:20.722Z,24.44
2022-08-16T21:30:32.165Z,24.41
2022-08-16T21:33:35.567Z,24.27
2022-08-16T21:36:39.475Z,24.13
2022-08-16T21:39:42.675Z,24.03
2022-08-16T21:42:47.107Z,23.95
2022-08-16T21:45:54.109Z,23.93
2022-08-16T21:48:58.405Z,23.90
2022-08-16T21:52:05.040Z,23.80
2022-08-16T21:55:10.200Z,23.77
2022-08-16T21:58:16.905Z,23.67
2022-08-16T22:01:23.228Z,23.64
2022-08-16T22:04:36.729Z,23.64
2022-08-16T22:07:43.190Z,23.57
2022-08-16T22:11:04.165Z,23.43
2022-08-16T22:14:09.824Z,23.42
2022-08-16T22:17:12.937Z,23.37
2022-08-16T22:20:16.425Z,23.34
2022-08-16T22:23:22.327Z,23.36
2022-08-16T22:26:39.611Z,23.30
2022-08-16T22:29:46.958Z,23.15
2022-08-16T22:32:50.064Z,23.15
2022-08-16T22:35:53.317Z,23.16
2022-08-16T22:38:58.802Z,23.12
2022-08-16T22:42:08.643Z,23.08
2022-08-16T22:45:12.268Z,22.94
2022-08-16T22:48:16.194Z,22.91
2022-08-16T22:51:19.812Z,22.91
2022-08-16T22:54:44.160Z,22.79
2022-08-16T22:57:46.304Z,22.74
2022-08-16T23:00:50.329Z,22.67
2022-08-16T23:03:55.766Z,22.60
2022-08-16T23:06:58.931Z,22.52
2022-08-16T23:10:01.946Z,22.46
2022-08-16T23:13:06.699Z,22.41
2022-08-16T23:16:11.867Z,22.34
2022-08-16T23:19:16.964Z,22.30
2022-08-16T23:22:19.710Z,22.22
2022-08-16T23:25:31.256Z,22.12
2022-08-16T23:28:34.378Z,22.10
2022-08-16T23:31:38.871Z,22.05
2022-08-16T23:34:41.781Z,22.06
2022-08-16T23:37:46.265Z,22.05
2022-08-16T23:40:50.239Z,22.02
2022-08-16T23:43:53.661Z,22.05
2022-08-16T23:46:56.945Z,22.05
2022-08-16T23:50:03.531Z,21.99
2022-08-16T23:53:13.450Z,22.01
2022-08-16T23:56:19.861Z,22.02
2022-08-16T23:59:22.675Z,21.94
